Time;durP1;ratioP1;P1;durP2;ratioP2;P2;SDS_P1;SDS_P2;PMS_P1;PMS_P2;Temp;Humidity;BMP_temperature;BMP_pressure;BME280_temperature;BME280_humidity;BME280_pressure;Samples;Min_cycle;Max_cycle;Signal;HPM_P1;HPM_P2
2021/05/11 00:00:55;;;;;;;2.50;1.90;;;16.20;99.90;;;-143.32;81.85;55578.34;5001203;28;20474;-89
2021/05/11 00:03:21;;;;;;;4.93;2.00;;;16.20;99.90;;;-143.32;81.85;55541.97;4995993;28;20454;-90
2021/05/11 00:05:50;;;;;;;3.10;2.00;;;16.10;99.90;;;-143.32;82.16;55566.22;4994513;28;20487;-91
2021/05/11 00:08:19;;;;;;;3.87;2.20;;;16.10;99.90;;;-143.32;82.25;55566.22;4994392;28;20483;-90
2021/05/11 00:10:49;;;;;;;2.80;1.97;;;16.00;99.90;;;-143.32;82.06;55572.28;4995345;28;20447;-89
2021/05/11 00:13:16;;;;;;;4.90;2.33;;;16.10;99.90;;;-143.32;82.39;55564.22;4995332;28;20459;-91
2021/05/11 00:15:43;;;;;;;5.00;2.53;;;16.00;99.90;;;-143.32;82.64;55574.31;4994866;28;20865;-90
2021/05/11 00:18:14;;;;;;;9.63;2.07;;;16.00;99.90;;;-143.32;83.20;55582.41;4994472;28;20934;-91
2021/05/11 00:20:40;;;;;;;5.13;2.43;;;16.00;99.90;;;-143.32;83.80;55568.25;4994740;28;20478;-93
2021/05/11 00:23:07;;;;;;;4.60;2.70;;;16.00;1.00;;;-143.32;85.90;55548.03;4994797;28;20451;-92
2021/05/11 00:25:34;;;;;;;2.30;2.10;;;15.90;1.00;;;-143.32;86.85;55503.59;4994749;28;20482;-91
2021/05/11 00:28:02;;;;;;;6.60;2.30;;;15.90;1.00;;;-143.32;86.58;55550.06;4994489;28;20505;-90
2021/05/11 00:30:29;;;;;;;5.03;2.20;;;15.80;1.00;;;-143.32;85.83;55537.94;4994310;28;20956;-88
2021/05/11 00:32:56;;;;;;;3.90;2.20;;;15.80;1.00;;;-143.32;87.05;55548.03;4994283;28;20474;-89
2021/05/11 00:35:23;;;;;;;5.50;2.27;;;15.80;1.00;;;-143.32;86.74;55531.88;4994009;28;20451;-90
2021/05/11 00:37:52;;;;;;;4.40;2.73;;;15.80;1.00;;;-143.32;87.35;55552.09;4994256;28;20446;-89
2021/05/11 00:40:19;;;;;;;5.67;2.60;;;15.70;1.00;;;-143.32;88.05;55515.72;4993850;28;20467;-90
2021/05/11 00:42:46;;;;;;;4.40;2.60;;;15.70;95.20;;;-143.32;89.03;55513.69;4993980;28;20450;-90
2021/05/11 00:45:13;;;;;;;3.87;2.10;;;15.70;99.90;;;-143.32;89.81;55497.53;4994259;28;20783;-91
2021/05/11 00:47:43;;;;;;;2.60;2.30;;;15.60;99.90;;;-143.32;91.42;55497.53;4994167;28;20479;-89
2021/05/11 00:50:12;;;;;;;4.13;2.30;;;15.50;1.00;;;-143.32;92.71;55495.50;4993844;28;20454;-89
2021/05/11 00:52:40;;;;;;;2.93;2.33;;;15.40;99.90;;;-143.32;93.19;55455.06;4994044;28;20818;-90
2021/05/11 00:55:08;;;;;;;3.30;2.27;;;15.40;99.90;;;-143.32;94.64;55459.13;4994052;28;20474;-88
2021/05/11 00:57:35;;;;;;;4.83;2.40;;;15.30;1.00;;;-143.32;96.56;55410.63;4994383;28;20447;-92
2021/05/11 01:00:05;;;;;;;3.27;2.70;;;15.20;1.00;;;-143.32;98.50;55388.38;5009645;28;20450;-93
2021/05/11 01:02:32;;;;;;;4.77;3.43;;;15.10;1.00;;;-143.32;99.98;55354.03;5006251;28;20470;-93
2021/05/11 01:04:59;;;;;;;3.30;2.57;;;15.00;99.90;;;-143.32;100.00;55305.53;4998470;28;20822;-92
2021/05/11 01:07:30;;;;;;;4.33;2.80;;;14.90;1.00;;;-143.32;100.00;55293.41;4998165;28;20483;-92
2021/05/11 01:09:57;;;;;;;5.60;3.10;;;14.70;99.90;;;-143.32;100.00;55261.06;4998388;28;20469;-93
2021/05/11 01:12:24;;;;;;;3.13;2.60;;;14.60;99.90;;;-143.32;100.00;55250.97;4998953;28;20831;-92
2021/05/11 01:14:52;;;;;;;3.10;2.80;;;14.50;99.90;;;-143.32;100.00;55257.03;4997892;28;20455;-91
2021/05/11 01:17:24;;;;;;;4.50;2.67;;;14.40;1.00;;;-143.32;100.00;55242.88;4997855;28;20431;-92
2021/05/11 01:19:53;;;;;;;3.60;2.60;;;14.30;1.00;;;-143.32;100.00;55228.75;4999139;28;20443;-90
2021/05/11 01:22:44;;;;;;;5.00;2.30;;;14.20;1.00;;;-143.32;100.00;55182.25;4998175;28;20482;-91
2021/05/11 01:25:16;;;;;;;5.30;2.83;;;14.10;99.90;;;-143.32;100.00;55153.97;4999159;28;20474;-93
2021/05/11 01:27:54;;;;;;;4.20;2.90;;;14.10;99.90;;;-143.32;100.00;55083.25;4998391;28;20956;-93
2021/05/11 01:30:56;;;;;;;7.80;4.10;;;14.10;99.90;;;-143.32;100.00;55008.47;4999712;28;20439;-93
2021/05/11 01:44:57;;;;;;;3.63;3.13;;;13.90;99.90;;;-143.32;100.00;54796.31;5000209;28;20438;-93
2021/05/11 01:47:31;;;;;;;3.03;2.70;;;14.00;99.90;;;-143.32;100.00;54735.69;4999137;28;20462;-92
2021/05/11 01:50:10;;;;;;;4.87;3.17;;;14.00;99.90;;;-143.32;100.00;54662.97;5001892;28;20779;-95
2021/05/11 01:55:31;;;;;;;3.30;3.00;;;14.00;99.90;;;-143.32;100.00;54537.69;4988531;28;20431;-92
2021/05/11 02:23:07;;;;;;;5.50;4.17;;;14.00;99.90;;;-143.32;100.00;53309.50;4997889;28;20415;-92
2021/05/11 02:25:34;;;;;;;5.43;4.23;;;14.00;99.90;;;-143.32;100.00;53252.97;4998802;28;20443;-93
2021/05/11 02:28:01;;;;;;;5.57;4.60;;;14.00;99.90;;;-143.32;100.00;53194.41;4999434;28;20443;-92
2021/05/11 02:30:28;;;;;;;5.00;4.33;;;13.90;99.90;;;-143.32;100.00;53145.91;5000180;28;20435;-92
2021/05/11 02:32:55;;;;;;;6.77;4.67;;;13.90;99.90;;;-143.32;100.00;53077.25;5004001;28;20435;-94
2021/05/11 02:35:22;;;;;;;5.63;4.87;;;13.80;99.90;;;-143.32;100.00;52982.34;5005275;28;20838;-91
2021/05/11 02:37:49;;;;;;;10.27;5.83;;;13.70;99.90;;;-143.32;100.00;52544.16;5005893;28;20447;-91
2021/05/11 02:40:23;;;;;;;11.70;5.80;;;13.70;99.90;;;-143.32;100.00;52291.75;5011541;28;20463;-92
2021/05/11 02:42:51;;;;;;;9.20;5.97;;;13.40;99.90;;;-143.32;100.00;51902.09;5006767;28;20466;-93
2021/05/11 02:45:19;;;;;;;10.77;6.40;;;13.60;99.90;;;-143.32;100.00;51278.34;4999678;28;20802;-91
2021/05/11 02:47:49;;;;;;;9.90;6.93;;;13.50;99.90;;;-143.32;100.00;50757.63;5002460;28;20435;-92
2021/05/11 02:50:21;;;;;;;9.70;6.83;;;13.50;99.90;;;-143.32;100.00;50257.16;5005912;28;20477;-94
2021/05/11 02:52:48;;;;;;;11.17;7.53;;;13.50;99.90;;;-143.32;100.00;50051.34;5001185;28;20451;-94
2021/05/11 02:55:16;;;;;;;10.37;7.77;;;13.60;99.90;;;-143.32;100.00;49990.81;5003727;28;20503;-93
2021/05/11 02:57:43;;;;;;;10.20;7.20;;;13.60;99.90;;;-143.32;100.00;49938.34;5004682;28;20945;-93
2021/05/11 03:00:13;;;;;;;10.57;7.40;;;13.60;99.90;;;-143.32;100.00;49926.25;5002968;28;20442;-92
2021/05/11 03:02:42;;;;;;;9.73;6.60;;;13.60;99.90;;;-143.32;100.00;49863.69;5001702;28;20475;-91
2021/05/11 03:05:09;;;;;;;13.53;6.60;;;13.60;99.90;;;-143.32;100.00;49742.63;5004164;28;20913;-91
2021/05/11 03:07:39;;;;;;;8.17;6.53;;;13.60;99.90;;;-143.32;100.00;49734.56;5000680;28;20443;-93
2021/05/11 03:10:12;;;;;;;12.00;7.20;;;13.60;99.90;;;-143.32;100.00;49625.63;5003278;28;20440;-92
2021/05/11 03:12:44;;;;;;;10.17;7.30;;;13.60;99.90;;;-143.32;100.00;49595.38;5003305;28;20931;-92
2021/05/11 03:15:13;;;;;;;13.83;7.23;;;13.60;99.90;;;-143.32;100.00;49561.06;5001179;28;20771;-94
2021/05/11 03:17:41;;;;;;;8.83;6.70;;;13.50;99.90;;;-143.32;100.00;49448.09;5001526;28;20447;-94
2021/05/11 03:20:12;;;;;;;8.50;6.57;;;13.50;99.90;;;-143.32;100.00;49238.28;4999291;28;20451;-91
2021/05/11 03:22:39;;;;;;;8.97;7.10;;;13.50;99.90;;;-143.32;100.00;49325.03;4997605;28;20585;-93
2021/05/11 03:25:09;;;;;;;10.27;7.53;;;13.50;99.90;;;-143.32;100.00;49185.84;4998649;28;20439;-92
2021/05/11 03:27:37;;;;;;;9.03;7.30;;;13.50;99.90;;;-143.32;100.00;48929.66;5000642;28;20531;-91
2021/05/11 03:30:09;;;;;;;11.80;8.20;;;13.50;99.90;;;-143.32;100.00;48252.00;4999315;28;20841;-93
2021/05/11 03:32:39;;;;;;;15.43;8.57;;;13.70;99.90;;;-143.32;100.00;47860.81;5003996;28;20474;-91
2021/05/11 03:35:08;;;;;;;17.10;8.07;;;13.60;99.90;;;-143.32;100.00;47687.41;5007312;28;20439;-93
2021/05/11 03:37:34;;;;;;;14.60;8.60;;;13.70;99.90;;;-143.32;100.00;47622.88;5006353;28;20449;-92
2021/05/11 03:40:02;;;;;;;16.33;9.07;;;13.70;99.90;;;-143.32;100.00;47497.88;5008432;28;20474;-93
2021/05/11 03:42:31;;;;;;;13.80;8.30;;;13.70;99.90;;;-143.32;100.00;47389.00;5014319;28;20487;-92
2021/05/11 03:45:01;;;;;;;20.13;9.03;;;13.70;99.90;;;-143.32;100.00;47405.13;5014788;28;20821;-92
2021/05/11 03:47:44;;;;;;;12.40;8.10;;;13.70;99.90;;;-143.32;100.00;47570.44;5015857;28;20525;-93
2021/05/11 03:50:14;;;;;;;12.30;8.60;;;13.70;99.90;;;-143.32;100.00;47665.22;5013375;28;20837;-91
2021/05/11 03:52:41;;;;;;;13.40;8.43;;;13.70;99.90;;;-143.32;100.00;47588.59;5006625;28;20487;-94
2021/05/11 03:55:10;;;;;;;16.17;9.50;;;13.80;99.90;;;-143.32;100.00;47616.81;5005324;28;20451;-94
2021/05/11 03:57:37;;;;;;;15.50;10.27;;;13.80;99.90;;;-143.32;100.00;47590.63;4986044;28;20458;-92
2021/05/11 04:00:06;;;;;;;16.73;9.90;;;13.80;99.90;;;-143.32;100.00;47784.19;5003726;28;20462;-93
2021/05/11 04:02:32;;;;;;;15.53;9.20;;;14.00;99.90;;;-143.32;100.00;47995.91;4999353;28;20505;-93
2021/05/11 04:05:06;;;;;;;14.07;9.77;;;13.80;99.90;;;-143.32;100.00;47961.63;4998807;28;20439;-94
2021/05/11 04:07:35;;;;;;;16.97;9.73;;;13.90;99.90;;;-143.32;100.00;48114.88;5000203;28;20424;-93
2021/05/11 04:10:06;;;;;;;19.50;9.77;;;13.90;99.90;;;-143.32;100.00;48373.00;4997178;28;20542;-92
2021/05/11 04:16:20;;;;;;;14.83;9.50;;;13.80;99.90;;;-143.32;100.00;48463.75;5000575;28;20411;-92
2021/05/11 04:18:57;;;;;;;14.60;9.00;;;13.80;99.90;;;-143.32;100.00;48455.69;4999834;28;20442;-92
2021/05/11 04:21:24;;;;;;;15.77;9.70;;;13.70;99.90;;;-143.32;100.00;48243.94;4996970;28;20514;-92
2021/05/11 04:23:52;;;;;;;16.43;9.80;;;13.80;99.90;;;-143.32;100.00;48137.06;4996854;28;20435;-93
2021/05/11 04:26:21;;;;;;;18.17;9.83;;;13.80;99.90;;;-143.32;100.00;48135.03;4996634;28;20492;-94
2021/05/11 04:28:49;;;;;;;15.17;9.90;;;13.80;99.90;;;-143.32;100.00;48298.41;4997601;28;20447;-94
2021/05/11 04:31:16;;;;;;;17.90;10.23;;;13.80;99.90;;;-143.32;100.00;48516.19;4996396;28;20450;-93
2021/05/11 04:33:43;;;;;;;13.50;9.83;;;13.80;99.90;;;-143.32;100.00;48576.72;4995828;28;20447;-93
2021/05/11 04:36:10;;;;;;;15.60;10.73;;;13.70;99.90;;;-143.32;100.00;48516.19;4996857;28;20439;-92
2021/05/11 04:38:38;;;;;;;13.07;10.60;;;13.80;99.90;;;-143.32;100.00;48475.88;5000429;28;20451;-93
2021/05/11 04:41:06;;;;;;;17.97;10.60;;;13.80;99.90;;;-143.32;100.00;48621.06;5001329;28;20881;-92
2021/05/11 04:43:35;;;;;;;13.27;10.23;;;13.80;99.90;;;-143.32;100.00;48566.63;5004208;28;20415;-93
2021/05/11 04:46:11;;;;;;;16.10;10.50;;;13.90;99.90;;;-143.32;100.00;48732.00;5004372;28;20455;-95
2021/05/11 04:48:37;;;;;;;13.07;9.30;;;13.90;99.90;;;-143.32;100.00;48879.25;5001815;28;20427;-92
2021/05/11 04:51:05;;;;;;;15.40;10.20;;;13.90;99.90;;;-143.32;100.00;48816.72;5001037;28;20450;-93
2021/05/11 04:54:02;;;;;;;12.60;9.60;;;13.90;99.90;;;-143.32;100.00;48687.63;5002478;28;20446;-93
2021/05/11 05:38:16;;;;;;;19.87;14.43;;;14.10;99.90;;;-143.32;100.00;50216.78;4977032;28;20405;-94
2021/05/11 05:40:56;;;;;;;19.63;13.97;;;14.30;99.90;;;-143.32;100.00;50164.34;4946521;29;20466;-92
2021/05/11 05:43:24;;;;;;;22.33;14.07;;;14.40;99.90;;;-143.32;100.00;50719.28;4947067;28;20454;-91
2021/05/11 05:49:41;;;;;;;19.83;14.17;;;14.30;99.90;;;-143.32;100.00;50709.19;4997636;28;20403;-90
2021/05/11 05:52:15;;;;;;;22.43;14.60;;;14.30;99.90;;;-143.32;100.00;50594.16;4999809;28;20435;-92
2021/05/11 05:58:34;;;;;;;22.43;16.33;;;14.60;99.90;;;-143.32;100.00;50757.63;5003251;28;20415;-92
2021/05/11 06:01:08;;;;;;;24.57;16.00;;;14.70;99.90;;;-143.32;100.00;50971.53;5008838;28;20493;-91
2021/05/11 06:49:14;;;;;;;9.87;6.27;;;16.10;99.90;;;-143.32;100.00;53069.19;5313781;23;20494;-94
2021/05/11 06:55:21;;;;;;;9.83;5.90;;;16.10;99.90;;;-143.32;100.00;53119.66;4998941;28;20435;-93
2021/05/11 06:57:51;;;;;;;14.50;5.53;;;16.00;99.90;;;-143.32;100.00;53107.56;4997051;28;20439;-89
2021/05/11 07:04:08;;;;;;;17.20;5.83;;;16.00;1.00;;;-143.32;100.00;53202.47;4996894;28;20411;-92
2021/05/11 07:10:21;;;;;;;12.40;5.70;;;16.00;99.90;;;-143.32;100.00;53252.97;5003654;28;20758;-93
2021/05/11 07:15:35;;;;;;;8.70;5.27;;;15.90;99.90;;;-143.32;100.00;53279.22;5001737;28;20458;-92
2021/05/11 07:18:13;;;;;;;10.27;6.30;;;15.80;99.90;;;-143.32;100.00;53311.53;5000491;28;20442;-92
2021/05/11 07:24:32;;;;;;;11.50;5.60;;;15.70;99.90;;;-143.32;100.00;53271.13;5002200;28;20418;-93
2021/05/11 07:27:19;;;;;;;11.47;6.67;;;15.80;1.00;;;-143.32;100.00;53285.28;4998865;28;20467;-88
2021/05/11 07:29:53;;;;;;;13.90;7.07;;;15.80;1.00;;;-143.32;100.00;53303.44;4995484;28;20434;-88
2021/05/11 07:36:01;;;;;;;10.90;5.00;;;15.90;1.00;;;-143.32;100.00;53408.47;4995576;28;20523;-90
2021/05/11 07:38:33;;;;;;;12.13;5.70;;;15.90;1.00;;;-143.32;100.00;53380.19;4995093;28;20459;-91
2021/05/11 07:44:50;;;;;;;8.90;5.00;;;15.80;99.90;;;-143.32;100.00;53317.59;5001597;28;20419;-93
2021/05/11 07:47:23;;;;;;;12.57;6.43;;;16.00;1.00;;;-143.32;100.00;53351.94;4987588;28;20438;-93
2021/05/11 08:02:23;;;;;;;10.27;5.73;;;17.10;1.00;;;-143.32;99.43;53465.03;5006272;28;20521;-93
2021/05/11 08:10:56;;;;;;;12.17;7.47;;;17.20;1.00;;;-143.32;96.92;53549.88;5009398;28;20418;-95
2021/05/11 08:20:10;;;;;;;12.30;6.77;;;17.90;1.00;;;-143.32;92.75;53695.28;5010474;28;20453;-92
2021/05/11 08:22:56;;;;;;;10.83;5.60;;;18.10;1.00;;;-143.32;92.22;53689.22;5004180;28;20494;-92
2021/05/11 08:28:24;;;;;;;14.10;6.93;;;18.30;1.00;;;-143.32;91.88;53711.44;4997918;28;20506;-92
2021/05/11 08:31:20;;;;;;;10.00;6.60;;;18.60;1.00;;;-143.32;89.24;53788.22;5000457;28;20458;-91
2021/05/11 08:46:28;;;;;;;17.60;10.23;;;17.90;99.90;;;-143.32;94.70;53820.53;5323036;22;20506;-93
2021/05/11 08:49:03;;;;;;;21.30;13.50;;;17.90;99.90;;;-143.32;92.29;53879.09;5005221;28;20439;-92
2021/05/11 08:51:34;;;;;;;31.13;15.30;;;18.00;1.00;;;-143.32;92.95;53816.50;5002658;28;20435;-93
2021/05/11 08:55:12;;;;;;;27.23;13.93;;;18.10;3.00;;;-143.32;91.57;53852.84;5004699;28;20561;-93
2021/05/11 09:05:01;;;;;;;23.57;16.17;;;17.70;99.90;;;-143.32;92.65;53905.38;4995562;28;20969;-90
2021/05/11 10:27:24;;;;;;;13.60;9.90;;;18.40;1.00;;;-143.32;86.72;54111.41;4944795;29;20517;-90
2021/05/11 10:48:42;;;;;;;11.60;9.23;;;18.20;1.00;;;-143.32;86.92;54147.78;5160836;22;20492;-91
2021/05/11 10:51:28;;;;;;;12.80;8.77;;;18.20;1.00;;;-143.32;88.50;54153.84;4988035;28;20432;-94
2021/05/11 10:57:45;;;;;;;11.07;8.67;;;17.80;99.90;;;-143.32;91.34;54161.91;4979882;28;20475;-88
2021/05/11 11:00:40;;;;;;;9.90;6.70;;;17.40;1.00;;;-143.32;91.20;54188.19;4976899;28;20471;-89
2021/05/11 11:03:13;;;;;;;9.10;7.37;;;17.30;1.00;;;-143.32;93.78;54192.22;4975761;28;20622;-90
2021/05/11 11:05:42;;;;;;;10.80;6.30;;;17.00;1.00;;;-143.32;94.61;54172.03;4976048;28;20966;-88
2021/05/11 11:08:28;;;;;;;9.10;7.17;;;16.90;1.00;;;-143.32;98.44;54161.91;4978942;28;20456;-94
2021/05/11 11:14:39;;;;;;;18.63;11.17;;;16.20;99.90;;;-143.32;100.00;54077.06;4976506;28;20772;-90
2021/05/11 11:17:07;;;;;;;12.67;8.43;;;15.90;99.90;;;-143.32;100.00;54032.63;4977281;28;20452;-92
2021/05/11 11:19:36;;;;;;;21.30;14.40;;;15.70;1.00;;;-143.32;100.00;53836.69;4976098;28;20451;-88
2021/05/11 11:25:08;;;;;;;17.37;13.73;;;15.50;99.90;;;-143.32;100.00;52941.94;4956574;29;20520;-89
2021/05/11 11:27:37;;;;;;;20.83;13.80;;;15.40;99.90;;;-143.32;100.00;52905.59;4958360;29;20441;-93
2021/05/11 11:30:11;;;;;;;18.60;14.30;;;15.30;99.90;;;-143.32;100.00;52877.34;4958482;29;20476;-92
2021/05/11 11:32:39;;;;;;;16.20;14.00;;;15.20;99.90;;;-143.32;100.00;52923.78;4957686;29;20552;-94
2021/05/11 11:35:09;;;;;;;19.50;14.50;;;14.80;99.90;;;-143.32;100.00;52707.72;4956682;29;20457;-91
2021/05/11 11:37:36;;;;;;;13.87;12.33;;;15.00;99.90;;;-143.32;100.00;53069.19;4957950;29;20444;-91
2021/05/11 11:40:06;;;;;;;17.67;14.77;;;14.80;99.90;;;-143.32;100.00;53107.56;4956997;29;20457;-92
2021/05/11 11:42:39;;;;;;;16.90;14.90;;;14.70;99.90;;;-143.32;100.00;53018.69;4957001;29;20469;-94
2021/05/11 11:49:00;;;;;;;21.40;16.70;;;14.80;99.90;;;-143.32;100.00;52927.81;4956074;28;20868;-89
2021/05/11 11:51:34;;;;;;;20.83;15.70;;;15.00;99.90;;;-143.32;100.00;53032.84;4956429;29;20499;-90
2021/05/11 11:57:53;;;;;;;20.70;17.37;;;15.00;99.90;;;-143.32;100.00;52849.06;4959025;29;20436;-92
2021/05/11 12:00:52;;;;;;;20.33;16.87;;;15.10;99.90;;;-143.32;100.00;52867.22;4960056;29;20452;-91
2021/05/11 12:03:22;;;;;;;25.00;17.33;;;15.00;99.90;;;-143.32;100.00;52723.84;4954988;29;20560;-92
2021/05/11 12:05:53;;;;;;;26.10;19.30;;;15.00;99.90;;;-143.32;100.00;52657.22;4962026;29;20449;-94
2021/05/11 12:08:28;;;;;;;23.13;17.90;;;15.00;99.90;;;-143.32;100.00;52596.66;4958602;29;20448;-93
2021/05/11 12:10:58;;;;;;;23.47;17.47;;;15.20;99.90;;;-143.32;100.00;52683.47;4958209;29;20519;-91
2021/05/11 12:13:27;;;;;;;21.20;17.47;;;15.10;99.90;;;-143.32;100.00;52733.97;4956753;29;20452;-92
2021/05/11 12:24:30;;;;;;;21.67;15.70;;;14.80;99.90;;;-143.32;100.00;52265.50;4994983;28;20829;-90
2021/05/11 12:30:10;;;;;;;19.30;15.70;;;14.90;99.90;;;-143.32;100.00;52425.00;4992146;28;20450;-92
2021/05/11 12:32:40;;;;;;;18.23;14.20;;;14.80;99.90;;;-143.32;100.00;52499.72;4995962;28;20427;-91
2021/05/11 12:35:13;;;;;;;21.10;14.37;;;14.80;99.90;;;-143.32;100.00;52523.94;4995596;28;20554;-92
2021/05/11 12:38:00;;;;;;;16.97;14.50;;;14.70;99.90;;;-143.32;100.00;52473.47;4995113;28;20455;-93
2021/05/11 12:40:59;;;;;;;21.00;14.57;;;14.70;99.90;;;-143.32;100.00;52358.38;4995335;28;20438;-91
2021/05/11 12:43:41;;;;;;;20.20;15.30;;;14.80;99.90;;;-143.32;100.00;52166.56;4997963;28;20483;-93
2021/05/11 12:46:21;;;;;;;28.17;18.53;;;14.90;99.90;;;-143.32;100.00;52007.06;4996025;28;20436;-90
2021/05/11 12:53:44;;;;;;;27.53;18.23;;;14.80;99.90;;;-143.32;100.00;50874.66;4960235;29;20428;-91
2021/05/11 12:57:05;;;;;;;23.00;17.33;;;14.70;99.90;;;-143.32;100.00;50107.84;4966420;28;20490;-92
2021/05/11 12:59:41;;;;;;;24.67;17.67;;;14.70;99.90;;;-143.32;100.00;50416.56;5004369;28;20847;-91
2021/05/11 13:29:49;;;;;;;24.50;18.27;;;14.80;99.90;;;-143.32;100.00;49004.31;5662885;22;20548;-92
2021/05/11 13:38:37;;;;;;;23.30;17.10;;;14.90;99.90;;;-143.32;100.00;49504.59;5720416;22;20455;-93
2021/05/11 13:43:42;;;;;;;21.40;16.03;;;15.00;99.90;;;-143.32;100.00;49506.59;5530145;22;20502;-89
2021/05/11 13:50:00;;;;;;;21.03;15.87;;;15.10;99.90;;;-143.32;100.00;49452.13;5004764;28;20426;-93
2021/05/11 13:55:41;;;;;;;18.93;14.20;;;15.00;99.90;;;-143.32;100.00;50553.78;5519517;22;20505;-92
2021/05/11 14:20:04;;;;;;;23.10;15.80;;;14.80;99.90;;;-143.32;100.00;48816.72;4997889;28;20836;-91
2021/05/11 14:22:41;;;;;;;31.67;17.63;;;14.60;99.90;;;-143.32;100.00;47465.59;5001782;28;20471;-93
2021/05/11 14:25:09;;;;;;;30.93;20.10;;;14.60;99.90;;;-143.32;100.00;46389.16;5002252;28;20459;-93
2021/05/11 14:27:36;;;;;;;36.00;22.93;;;14.60;99.90;;;-143.32;100.00;45675.72;4996757;28;20930;-90
2021/05/11 14:32:54;;;;;;;31.23;20.77;;;14.60;99.90;;;-143.32;100.00;45026.91;4995930;28;20985;-92
2021/05/11 14:35:27;;;;;;;37.03;24.30;;;14.50;99.90;;;-143.32;100.00;44370.19;4999158;28;20936;-92
2021/05/11 14:41:34;;;;;;;50.33;27.07;;;14.40;99.90;;;-143.32;100.00;39945.59;4996689;28;20434;-93
2021/05/11 14:44:01;;;;;;;54.40;27.57;;;14.50;99.90;;;-143.32;100.00;39400.47;4996215;28;20443;-90
2021/05/11 14:46:28;;;;;;;47.40;26.90;;;14.40;99.90;;;-143.32;100.00;39183.25;4996123;28;20451;-92
2021/05/11 14:48:59;;;;;;;48.60;28.10;;;14.40;99.90;;;-143.32;100.00;39145.03;4995811;28;20440;-92
2021/05/11 14:51:26;;;;;;;46.90;27.57;;;14.20;99.90;;;-143.32;100.00;38831.31;4995936;28;20462;-90
2021/05/11 14:54:34;;;;;;;40.70;26.53;;;14.30;99.90;;;-143.32;100.00;38859.47;4996022;28;20443;-92
2021/05/11 14:57:01;;;;;;;38.10;24.50;;;14.10;99.90;;;-143.32;100.00;38764.94;4995123;28;20439;-89
2021/05/11 14:59:30;;;;;;;37.47;23.90;;;14.10;99.90;;;-143.32;100.00;38821.25;5012451;28;20829;-90
2021/05/11 15:01:57;;;;;;;34.00;23.60;;;14.10;99.90;;;-143.32;100.00;38702.63;5015790;28;20557;-92
2021/05/11 15:04:24;;;;;;;32.10;22.10;;;14.10;99.90;;;-143.32;100.00;38702.63;5015590;28;20466;-92
2021/05/11 15:06:55;;;;;;;35.77;23.73;;;14.10;99.90;;;-143.32;100.00;38680.50;5015357;28;20478;-93
2021/05/11 15:09:21;;;;;;;35.13;23.67;;;14.00;99.90;;;-143.32;100.00;38730.75;5016418;28;20450;-95
2021/05/11 15:11:48;;;;;;;37.00;23.93;;;14.00;99.90;;;-143.32;100.00;38821.25;5015506;28;20500;-93
2021/05/11 15:14:15;;;;;;;38.93;25.83;;;13.90;99.90;;;-143.32;100.00;38947.97;5016431;28;20453;-94
2021/05/11 15:16:41;;;;;;;36.77;26.00;;;13.90;99.90;;;-143.32;100.00;39040.47;5015646;28;20454;-95
2021/05/11 15:19:11;;;;;;;37.57;25.10;;;13.90;99.90;;;-143.32;100.00;39887.25;5015624;28;20477;-93
2021/05/11 15:21:41;;;;;;;36.50;23.70;;;14.00;99.90;;;-143.32;100.00;40543.13;5015226;28;20905;-94
2021/05/11 15:27:54;;;;;;;40.00;26.00;;;14.00;99.90;;;-143.32;100.00;40720.19;5015873;28;20445;-93
2021/05/11 15:30:25;;;;;;;36.47;24.30;;;14.00;99.90;;;-143.32;100.00;40525.00;5015775;28;20445;-93
2021/05/11 15:32:55;;;;;;;43.17;25.10;;;14.00;99.90;;;-143.32;100.00;40979.75;5015965;28;20442;-94
2021/05/11 15:39:03;;;;;;;38.23;26.37;;;14.00;99.90;;;-143.32;100.00;40040.16;5015015;28;20418;-92
2021/05/11 15:41:39;;;;;;;37.60;25.30;;;14.00;99.90;;;-143.32;100.00;40136.72;5015017;28;20478;-95
2021/05/11 15:45:21;;;;;;;;;;;;;;;;;;;;;
2021/05/11 15:55:27;;;;;;;35.77;24.70;;;14.20;99.90;;;-143.32;100.00;43268.53;4994728;28;20470;-88
2021/05/11 16:09:52;;;;;;;40.80;25.70;;;14.30;99.90;;;-143.32;100.00;42245.75;4769383;30;20442;-91
2021/05/11 16:12:39;;;;;;;43.50;25.40;;;14.40;99.90;;;-143.32;100.00;44918.13;4786939;29;20948;-90
2021/05/11 16:15:30;;;;;;;36.47;24.90;;;14.60;99.90;;;-143.32;100.00;45145.78;4828970;29;20802;-90
2021/05/11 16:17:57;;;;;;;36.40;26.87;;;14.60;99.90;;;-143.32;100.00;45331.16;4897555;29;20433;-89
2021/05/11 16:20:25;;;;;;;37.17;26.73;;;14.70;99.90;;;-143.32;100.00;45597.13;4926904;29;20453;-89
2021/05/11 16:22:52;;;;;;;38.37;26.90;;;14.70;99.90;;;-143.32;100.00;45180.03;4967170;28;20570;-88
2021/05/11 16:25:23;;;;;;;37.20;26.37;;;14.70;99.90;;;-143.32;100.00;45431.91;4983421;28;20439;-89
2021/05/11 16:27:55;;;;;;;45.60;26.77;;;14.70;99.90;;;-143.32;100.00;45057.13;4994545;28;20451;-89
2021/05/11 17:59:00;;;;;;;82.00;45.63;;;14.00;99.90;;;-143.32;100.00;41482.88;4849127;29;20488;-93
